createdAt,value
2023-04-29T00:01:01.936Z,19.38
2023-04-29T00:03:32.527Z,20.48
2023-04-29T00:06:01.311Z,20.13
2023-04-29T00:08:29.692Z,20.75
2023-04-29T00:10:57.566Z,19.65
2023-04-29T00:13:26.066Z,19.73
2023-04-29T00:15:55.298Z,20.10
2023-04-29T00:18:23.173Z,20.50
2023-04-29T00:20:51.095Z,20.30
2023-04-29T00:23:18.904Z,20.30
2023-04-29T00:25:46.818Z,19.83
2023-04-29T00:28:14.682Z,21.45
2023-04-29T00:30:42.651Z,18.73
2023-04-29T00:33:12.616Z,18.60
2023-04-29T00:35:40.444Z,19.03
2023-04-29T00:38:08.552Z,20.42
2023-04-29T00:40:37.208Z,19.73
2023-04-29T00:43:05.126Z,19.90
2023-04-29T00:45:33.094Z,19.10
2023-04-29T00:48:00.975Z,20.23
2023-04-29T00:50:30.846Z,19.05
2023-04-29T00:52:59.070Z,20.80
2023-04-29T00:55:27.840Z,21.88
2023-04-29T00:57:55.722Z,20.85
2023-04-29T01:00:24.890Z,20.58
2023-04-29T01:02:54.197Z,20.40
2023-04-29T01:05:22.227Z,21.08
2023-04-29T01:08:13.140Z,20.50
2023-04-29T01:10:48.084Z,21.20
2023-04-29T01:13:20.020Z,21.58
2023-04-29T01:16:01.495Z,20.90
2023-04-29T01:18:34.618Z,22.08
2023-04-29T01:21:02.711Z,22.48
2023-04-29T01:23:32.253Z,22.98
2023-04-29T01:26:00.639Z,21.90
2023-04-29T01:28:41.893Z,21.50
2023-04-29T01:31:14.129Z,20.85
2023-04-29T01:33:49.329Z,21.83
2023-04-29T01:36:25.080Z,20.00
2023-04-29T01:39:04.303Z,21.33
2023-04-29T01:41:37.036Z,21.00
2023-04-29T01:44:09.042Z,20.50
2023-04-29T01:46:37.502Z,21.20
2023-04-29T01:49:05.421Z,20.40
2023-04-29T01:51:34.132Z,20.60
2023-04-29T01:54:05.210Z,20.20
2023-04-29T01:56:33.099Z,19.40
2023-04-29T01:59:01.033Z,19.23
2023-04-29T02:01:28.839Z,20.83
2023-04-29T02:03:56.934Z,18.55
2023-04-29T02:06:25.261Z,20.40
2023-04-29T02:08:53.120Z,19.60
2023-04-29T02:11:22.422Z,19.80
2023-04-29T02:13:50.351Z,19.88
2023-04-29T02:16:18.885Z,19.27
2023-04-29T02:18:46.912Z,19.77
2023-04-29T02:21:14.885Z,20.23
2023-04-29T02:23:42.773Z,20.10
2023-04-29T02:26:10.699Z,18.67
2023-04-29T02:28:40.045Z,19.48
2023-04-29T02:31:08.033Z,18.70
2023-04-29T02:33:35.865Z,18.50
2023-04-29T02:36:03.854Z,18.63
2023-04-29T02:38:31.776Z,18.67
2023-04-29T02:40:59.700Z,17.33
2023-04-29T02:43:30.859Z,16.65
2023-04-29T02:46:00.556Z,17.10
2023-04-29T02:48:28.621Z,16.95
2023-04-29T02:50:56.472Z,15.43
2023-04-29T02:53:24.413Z,15.65
2023-04-29T02:55:52.324Z,15.23
2023-04-29T02:58:20.277Z,15.10
2023-04-29T03:00:48.136Z,15.80
2023-04-29T03:03:17.550Z,15.98
2023-04-29T03:05:45.633Z,15.60
2023-04-29T03:08:13.563Z,14.90
2023-04-29T03:10:41.898Z,14.80
2023-04-29T03:13:09.848Z,15.30
2023-04-29T03:15:39.362Z,14.70
2023-04-29T03:18:07.325Z,15.80
2023-04-29T03:20:36.830Z,15.88
2023-04-29T03:23:05.213Z,14.77
2023-04-29T03:25:33.155Z,16.50
2023-04-29T03:28:01.129Z,14.57
2023-04-29T03:30:28.996Z,15.07
2023-04-29T03:32:56.899Z,14.60
2023-04-29T03:35:24.905Z,14.75
2023-04-29T03:37:54.095Z,16.10
2023-04-29T03:40:22.176Z,15.55
2023-04-29T03:42:50.306Z,15.75
2023-04-29T03:45:18.356Z,16.35
2023-04-29T03:47:46.211Z,15.55
2023-04-29T03:50:14.159Z,15.90
2023-04-29T03:52:42.184Z,15.77
2023-04-29T03:55:12.674Z,15.45
2023-04-29T03:57:42.285Z,15.52
2023-04-29T04:00:11.558Z,15.73
2023-04-29T04:02:39.560Z,15.97
2023-04-29T04:05:07.780Z,15.60
2023-04-29T04:07:35.818Z,16.42
2023-04-29T04:10:03.779Z,15.23
2023-04-29T04:12:33.068Z,16.60
2023-04-29T04:15:00.969Z,16.80
2023-04-29T04:17:28.916Z,14.90
2023-04-29T04:19:56.912Z,16.27
2023-04-29T04:22:24.868Z,15.60
2023-04-29T04:24:52.723Z,15.07
2023-04-29T04:27:20.540Z,15.38
2023-04-29T04:29:50.052Z,16.45
2023-04-29T04:32:18.098Z,15.87
2023-04-29T04:34:45.945Z,15.60
2023-04-29T04:37:13.776Z,16.00
2023-04-29T04:39:41.725Z,15.63
2023-04-29T04:42:09.572Z,15.48
2023-04-29T04:44:37.512Z,15.33
2023-04-29T04:47:07.204Z,15.80
2023-04-29T04:49:35.133Z,15.63
2023-04-29T04:52:02.961Z,15.75
2023-04-29T04:54:30.877Z,16.38
2023-04-29T04:56:58.711Z,14.77
2023-04-29T04:59:26.713Z,16.77
2023-04-29T05:01:55.439Z,15.90
2023-04-29T05:04:25.085Z,15.73
2023-04-29T05:06:53.108Z,15.50
2023-04-29T05:09:21.007Z,15.00
2023-04-29T05:11:48.910Z,14.90
2023-04-29T05:14:17.105Z,15.50
2023-04-29T05:16:46.558Z,15.77
2023-04-29T05:19:14.579Z,16.80
2023-04-29T05:21:43.868Z,16.40
2023-04-29T05:24:11.848Z,16.05
2023-04-29T05:26:39.761Z,16.40
2023-04-29T05:29:07.668Z,16.75
2023-04-29T05:31:35.523Z,16.03
2023-04-29T05:34:03.426Z,16.60
2023-04-29T05:36:31.623Z,16.90
2023-04-29T05:39:00.855Z,17.10
2023-04-29T05:41:28.755Z,17.17
2023-04-29T05:43:56.636Z,17.20
2023-04-29T05:46:24.578Z,16.77
2023-04-29T05:48:52.439Z,18.15
2023-04-29T05:51:20.293Z,16.73
2023-04-29T05:53:48.198Z,16.20
2023-04-29T05:56:19.072Z,17.00
2023-04-29T05:58:47.062Z,17.27
2023-04-29T06:01:14.952Z,18.10
2023-04-29T06:03:42.984Z,16.90
2023-04-29T06:06:11.386Z,17.98
2023-04-29T06:08:39.308Z,16.50
2023-04-29T06:11:07.205Z,16.52
2023-04-29T06:13:36.483Z,16.90
2023-04-29T06:16:04.549Z,17.25
2023-04-29T06:18:32.527Z,16.48
2023-04-29T06:21:00.505Z,18.17
2023-04-29T06:23:28.416Z,17.60
2023-04-29T06:25:56.338Z,17.40
2023-04-29T06:28:24.255Z,16.77
2023-04-29T06:30:53.492Z,16.35
2023-04-29T06:33:21.436Z,16.65
2023-04-29T06:35:49.321Z,16.67
2023-04-29T06:38:17.177Z,16.10
2023-04-29T06:40:45.090Z,17.25
2023-04-29T06:43:12.939Z,16.80
2023-04-29T06:45:40.820Z,16.95
2023-04-29T06:48:10.052Z,16.40
2023-04-29T06:50:37.980Z,15.88
2023-04-29T06:53:05.899Z,16.95
2023-04-29T06:55:33.770Z,16.38
2023-04-29T06:58:01.834Z,16.90
2023-04-29T07:00:29.703Z,17.58
2023-04-29T07:02:57.642Z,15.75
2023-04-29T07:05:27.001Z,15.35
2023-04-29T07:07:54.941Z,15.82
2023-04-29T07:10:22.943Z,15.45
2023-04-29T07:12:50.838Z,15.95
2023-04-29T07:15:19.071Z,15.57
2023-04-29T07:17:46.984Z,15.23
2023-04-29T07:20:15.222Z,15.40
2023-04-29T07:22:44.501Z,14.30
2023-04-29T07:25:12.562Z,15.25
2023-04-29T07:27:40.399Z,14.02
2023-04-29T07:30:09.145Z,13.70
2023-04-29T07:32:37.140Z,13.60
2023-04-29T07:35:05.694Z,13.82
2023-04-29T07:37:33.745Z,14.50
2023-04-29T07:40:02.996Z,13.10
2023-04-29T07:42:30.933Z,13.27
2023-04-29T07:44:58.892Z,12.68
2023-04-29T07:47:27.189Z,12.95
2023-04-29T07:49:55.151Z,13.60
2023-04-29T07:52:23.091Z,13.35
2023-04-29T07:54:51.235Z,13.35
2023-04-29T07:57:20.518Z,12.95
2023-04-29T07:59:48.647Z,12.63
2023-04-29T08:02:16.738Z,12.30
2023-04-29T08:04:44.853Z,12.45
2023-04-29T08:07:12.875Z,12.77
2023-04-29T08:09:40.757Z,12.38
2023-04-29T08:12:09.112Z,12.05
2023-04-29T08:14:38.306Z,11.80
2023-04-29T08:17:06.158Z,12.25
2023-04-29T08:19:34.097Z,11.80
2023-04-29T08:22:04.044Z,10.23
2023-04-29T08:24:33.648Z,11.50
2023-04-29T08:27:01.771Z,10.20
2023-04-29T08:29:32.677Z,11.00
2023-04-29T08:32:02.380Z,9.85
2023-04-29T08:34:30.412Z,10.15
2023-04-29T08:36:58.730Z,10.63
2023-04-29T08:39:26.880Z,10.10
2023-04-29T08:41:56.476Z,10.43
2023-04-29T08:44:24.759Z,11.00
2023-04-29T08:46:53.428Z,11.38
2023-04-29T08:49:22.720Z,10.97
2023-04-29T08:51:51.608Z,9.50
2023-04-29T08:54:19.710Z,10.87
2023-04-29T08:56:48.343Z,10.10
2023-04-29T08:59:18.157Z,9.80
2023-04-29T09:01:50.707Z,10.07
2023-04-29T09:04:39.033Z,9.73
2023-04-29T09:07:08.407Z,9.57
2023-04-29T09:09:37.008Z,10.25
2023-04-29T09:12:05.016Z,9.70
2023-04-29T09:14:34.555Z,9.13
2023-04-29T09:17:02.548Z,9.32
2023-04-29T09:19:32.993Z,8.82
2023-04-29T09:22:02.159Z,9.57
2023-04-29T09:24:31.597Z,8.80
2023-04-29T09:27:00.160Z,9.60
2023-04-29T09:29:28.304Z,9.20
2023-04-29T09:31:58.614Z,9.43
2023-04-29T09:34:35.709Z,8.70
2023-04-29T09:37:03.715Z,9.25
2023-04-29T09:39:40.251Z,8.30
2023-04-29T09:42:09.689Z,9.38
2023-04-29T09:44:37.839Z,8.70
2023-04-29T09:47:07.395Z,8.47
2023-04-29T09:49:38.695Z,8.50
2023-04-29T09:52:08.087Z,8.50
2023-04-29T09:54:37.401Z,8.60
2023-04-29T09:57:06.966Z,8.95
2023-04-29T09:59:36.569Z,9.00
2023-04-29T10:02:09.345Z,8.40
2023-04-29T10:04:41.581Z,8.50
2023-04-29T10:07:10.518Z,8.57
2023-04-29T10:09:40.880Z,8.27
2023-04-29T10:12:09.238Z,8.10
2023-04-29T10:14:48.830Z,7.70
2023-04-29T10:17:22.247Z,8.40
2023-04-29T10:19:57.254Z,6.60
2023-04-29T10:22:33.614Z,7.13
2023-04-29T10:25:02.883Z,6.18
2023-04-29T10:27:34.655Z,6.57
2023-04-29T10:30:05.043Z,6.50
2023-04-29T10:32:49.642Z,5.88
2023-04-29T10:35:23.461Z,6.50
2023-04-29T10:37:52.919Z,6.13
2023-04-29T10:40:25.871Z,6.07
2023-04-29T10:42:54.936Z,6.43
2023-04-29T10:45:25.081Z,6.83
2023-04-29T10:48:15.065Z,6.20
2023-04-29T10:51:02.397Z,6.60
2023-04-29T10:53:31.027Z,6.13
2023-04-29T10:56:04.355Z,6.15
2023-04-29T10:58:40.452Z,5.57
2023-04-29T11:01:11.147Z,5.43
2023-04-29T11:03:58.712Z,5.10
2023-04-29T11:06:41.081Z,5.10
2023-04-29T11:09:14.512Z,4.50
2023-04-29T11:12:05.543Z,4.90
2023-04-29T11:14:38.364Z,5.00
2023-04-29T11:17:09.473Z,4.90
2023-04-29T11:19:41.619Z,4.53
2023-04-29T11:22:13.983Z,5.20
2023-04-29T11:24:56.316Z,5.25
2023-04-29T11:27:26.498Z,5.20
2023-04-29T11:29:58.561Z,4.93
2023-04-29T11:32:27.783Z,5.00
2023-04-29T11:34:56.415Z,5.30
2023-04-29T11:37:28.023Z,4.90
2023-04-29T11:40:01.412Z,4.88
2023-04-29T11:42:29.522Z,4.88
2023-04-29T11:44:59.427Z,4.95
2023-04-29T11:47:28.855Z,5.15
2023-04-29T11:50:04.959Z,5.38
2023-04-29T11:52:36.225Z,6.10
2023-04-29T11:55:04.591Z,5.32
2023-04-29T11:57:32.803Z,5.10
2023-04-29T12:00:01.214Z,6.43
2023-04-29T12:02:32.536Z,6.05
2023-04-29T12:05:02.377Z,6.35
2023-04-29T12:07:30.711Z,6.50
2023-04-29T12:10:00.036Z,7.00
2023-04-29T12:12:29.075Z,6.60
2023-04-29T12:14:57.072Z,6.10
2023-04-29T12:17:25.872Z,6.38
2023-04-29T12:19:53.907Z,5.80
2023-04-29T12:22:21.837Z,6.00
2023-04-29T12:24:50.900Z,6.63
2023-04-29T12:27:20.647Z,6.90
2023-04-29T12:29:48.713Z,7.95
2023-04-29T12:32:18.848Z,7.37
2023-04-29T12:34:47.507Z,8.05
2023-04-29T12:37:16.688Z,7.63
2023-04-29T12:39:44.664Z,8.02
2023-04-29T12:42:17.068Z,7.60
2023-04-29T12:44:48.206Z,6.77
2023-04-29T12:47:16.959Z,7.57
2023-04-29T12:49:46.250Z,6.97
2023-04-29T12:52:14.649Z,7.47
2023-04-29T12:54:43.832Z,7.30
2023-04-29T12:57:12.289Z,7.10
2023-04-29T12:59:41.196Z,6.93
2023-04-29T13:02:10.695Z,6.97
2023-04-29T13:04:39.989Z,7.00
2023-04-29T13:07:08.193Z,7.23
2023-04-29T13:09:38.027Z,7.32
2023-04-29T13:12:07.723Z,6.95
2023-04-29T13:14:35.648Z,7.30
2023-04-29T13:17:04.101Z,6.68
2023-04-29T13:19:49.683Z,6.55
2023-04-29T13:22:19.675Z,6.68
2023-04-29T13:24:47.586Z,6.30
2023-04-29T13:27:15.569Z,6.95
2023-04-29T13:29:43.574Z,7.50
2023-04-29T13:32:11.648Z,7.60
2023-04-29T13:34:43.213Z,6.70
2023-04-29T13:37:11.356Z,7.20
2023-04-29T13:39:39.770Z,7.20
2023-04-29T13:42:08.988Z,7.32
2023-04-29T13:44:49.779Z,7.28
2023-04-29T13:47:25.704Z,6.80
2023-04-29T13:50:16.845Z,7.80
2023-04-29T13:56:01.703Z,7.15
2023-04-29T14:01:05.133Z,7.57
2023-04-29T14:03:21.367Z,7.18
2023-04-29T14:05:51.315Z,7.57
2023-04-29T14:08:19.252Z,7.15
2023-04-29T14:10:47.847Z,7.90
2023-04-29T14:13:15.890Z,6.97
2023-04-29T14:15:43.835Z,7.40
2023-04-29T14:18:30.070Z,6.88
2023-04-29T14:20:59.652Z,6.33
2023-04-29T14:23:27.755Z,7.75
2023-04-29T14:26:06.237Z,7.50
2023-04-29T14:28:43.788Z,6.30
2023-04-29T14:31:13.793Z,6.50
2023-04-29T14:33:41.849Z,6.20
2023-04-29T14:36:11.066Z,6.50
2023-04-29T14:38:38.947Z,5.85
2023-04-29T14:41:07.557Z,6.67
2023-04-29T14:43:36.730Z,5.90
2023-04-29T14:46:05.041Z,6.13
2023-04-29T14:48:33.143Z,6.40
2023-04-29T14:51:01.123Z,6.00
2023-04-29T14:53:30.386Z,6.00
2023-04-29T14:55:58.395Z,5.97
2023-04-29T14:58:26.423Z,6.47
2023-04-29T15:00:54.483Z,4.90
2023-04-29T15:03:23.199Z,5.85
2023-04-29T15:05:51.777Z,5.80
2023-04-29T15:08:20.048Z,6.30
2023-04-29T15:10:49.838Z,6.32
2023-04-29T15:13:17.770Z,6.00
2023-04-29T15:15:45.722Z,6.10
2023-04-29T15:18:13.728Z,5.60
2023-04-29T15:20:44.123Z,6.32
2023-04-29T15:23:12.115Z,5.70
2023-04-29T15:25:40.242Z,5.35
2023-04-29T15:28:09.494Z,4.90
2023-04-29T15:30:37.637Z,5.30
2023-04-29T15:33:05.673Z,4.83
2023-04-29T15:35:35.039Z,4.50
2023-04-29T15:38:02.894Z,4.90
2023-04-29T15:40:30.773Z,5.32
2023-04-29T15:42:58.734Z,4.47
2023-04-29T15:45:28.058Z,4.70
2023-04-29T15:47:55.987Z,4.45
2023-04-29T15:50:23.949Z,4.50
2023-04-29T15:52:55.141Z,4.90
2023-04-29T15:55:23.174Z,4.43
2023-04-29T15:57:51.485Z,4.15
2023-04-29T16:00:19.599Z,3.80
2023-04-29T16:02:48.895Z,3.88
2023-04-29T16:05:16.981Z,3.50
2023-04-29T16:07:44.972Z,4.10
2023-04-29T16:10:14.684Z,3.60
2023-04-29T16:12:42.955Z,3.70
2023-04-29T16:15:11.652Z,3.63
2023-04-29T16:17:39.683Z,4.20
2023-04-29T16:20:10.266Z,3.40
2023-04-29T16:22:38.171Z,3.25
2023-04-29T16:25:06.879Z,3.40
2023-04-29T16:27:34.869Z,3.10
2023-04-29T16:30:04.083Z,3.53
2023-04-29T16:32:33.042Z,3.08
2023-04-29T16:35:01.867Z,3.20
2023-04-29T16:37:31.576Z,2.60
2023-04-29T16:40:00.294Z,2.88
2023-04-29T16:42:28.205Z,2.83
2023-04-29T16:44:56.124Z,2.63
2023-04-29T16:47:24.933Z,2.90
2023-04-29T16:49:53.340Z,2.60
2023-04-29T16:52:22.337Z,3.25
2023-04-29T16:54:51.605Z,2.72
2023-04-29T16:57:21.324Z,2.55
2023-04-29T16:59:49.191Z,2.60
2023-04-29T17:02:17.172Z,2.70
2023-04-29T17:04:45.251Z,2.90
2023-04-29T17:07:14.370Z,2.23
2023-04-29T17:09:42.317Z,2.95
2023-04-29T17:12:11.861Z,2.23
2023-04-29T17:14:40.520Z,2.17
2023-04-29T17:17:08.605Z,2.25
2023-04-29T17:19:36.532Z,2.10
2023-04-29T17:22:04.935Z,2.10
2023-04-29T17:24:33.723Z,2.10
2023-04-29T17:27:01.609Z,2.00
2023-04-29T17:29:30.838Z,1.73
2023-04-29T17:32:02.039Z,1.90
2023-04-29T17:34:31.140Z,1.90
2023-04-29T17:36:59.226Z,2.30
2023-04-29T17:39:27.116Z,2.00
2023-04-29T17:41:55.085Z,2.00
2023-04-29T17:44:23.567Z,2.00
2023-04-29T17:46:53.079Z,2.00
2023-04-29T17:49:21.012Z,2.17
2023-04-29T17:51:48.908Z,2.30
2023-04-29T17:54:16.775Z,2.40
2023-04-29T17:56:44.768Z,2.40
2023-04-29T17:59:12.817Z,2.30
2023-04-29T18:01:40.859Z,2.38
2023-04-29T18:04:10.174Z,2.80
2023-04-29T18:06:38.065Z,3.22
2023-04-29T18:09:06.178Z,3.00
2023-04-29T18:11:34.710Z,2.90
2023-04-29T18:14:02.655Z,3.30
2023-04-29T18:16:30.592Z,3.10
2023-04-29T18:18:58.589Z,3.13
2023-04-29T18:21:28.650Z,3.40
2023-04-29T18:23:57.265Z,3.47
2023-04-29T18:26:25.521Z,3.65
2023-04-29T18:28:53.433Z,3.90
2023-04-29T18:31:23.165Z,4.40
2023-04-29T18:33:51.038Z,3.80
2023-04-29T18:36:21.165Z,4.07
2023-04-29T18:38:50.438Z,4.28
2023-04-29T18:41:18.427Z,3.70
2023-04-29T18:43:46.353Z,3.80
2023-04-29T18:46:14.300Z,3.60
2023-04-29T18:48:42.266Z,3.60
2023-04-29T18:51:10.198Z,3.40
2023-04-29T18:53:38.153Z,3.90
2023-04-29T18:56:08.267Z,3.83
2023-04-29T18:58:36.448Z,3.60
2023-04-29T19:01:04.380Z,3.73
2023-04-29T19:03:32.512Z,4.05
2023-04-29T19:06:00.431Z,3.63
2023-04-29T19:08:28.522Z,3.90
2023-04-29T19:10:57.492Z,3.53
2023-04-29T19:13:29.367Z,3.97
2023-04-29T19:15:57.314Z,3.83
2023-04-29T19:18:25.415Z,3.63
2023-04-29T19:20:53.597Z,4.07
2023-04-29T19:23:22.113Z,4.50
2023-04-29T19:25:50.019Z,4.38
2023-04-29T19:28:17.860Z,3.83
2023-04-29T19:30:47.129Z,4.60
2023-04-29T19:33:15.046Z,4.00
2023-04-29T19:35:43.040Z,4.30
2023-04-29T19:38:11.281Z,4.20
2023-04-29T19:40:39.236Z,4.40
2023-04-29T19:43:07.115Z,4.60
2023-04-29T19:45:36.333Z,4.20
2023-04-29T19:48:05.757Z,4.30
2023-04-29T19:50:33.708Z,4.95
2023-04-29T19:53:01.575Z,4.15
2023-04-29T19:55:29.817Z,4.45
2023-04-29T19:57:58.536Z,4.28
2023-04-29T20:00:27.031Z,4.27
2023-04-29T20:02:54.981Z,4.63
2023-04-29T20:05:24.556Z,4.90
2023-04-29T20:07:52.435Z,5.15
2023-04-29T20:10:20.740Z,4.82
2023-04-29T20:12:48.953Z,4.90
2023-04-29T20:15:16.938Z,4.45
2023-04-29T20:17:45.194Z,4.80
2023-04-29T20:20:13.359Z,4.60
2023-04-29T20:22:42.586Z,4.63
2023-04-29T20:25:10.807Z,5.00
2023-04-29T20:27:38.765Z,4.85
2023-04-29T20:30:08.681Z,5.47
2023-04-29T20:32:37.103Z,4.90
2023-04-29T20:35:05.718Z,5.18
2023-04-29T20:37:33.666Z,5.30
2023-04-29T20:40:03.019Z,4.70
2023-04-29T20:42:30.892Z,5.10
2023-04-29T20:44:59.024Z,4.78
2023-04-29T20:47:27.715Z,5.60
2023-04-29T20:49:55.871Z,5.20
2023-04-29T20:52:24.552Z,5.22
2023-04-29T20:54:52.906Z,5.75
2023-04-29T20:57:22.172Z,5.40
2023-04-29T20:59:50.161Z,5.30
2023-04-29T21:02:18.098Z,4.90
2023-04-29T21:04:46.186Z,6.15
2023-04-29T21:07:14.179Z,5.82
2023-04-29T21:09:42.117Z,6.10
2023-04-29T21:12:10.016Z,5.60
2023-04-29T21:14:40.836Z,6.13
2023-04-29T21:17:09.965Z,5.82
2023-04-29T21:19:38.536Z,6.03
2023-04-29T21:22:06.496Z,5.70
2023-04-29T21:24:34.356Z,5.68
2023-04-29T21:27:02.637Z,5.90
2023-04-29T21:29:30.489Z,5.50
2023-04-29T21:31:59.734Z,5.97
2023-04-29T21:34:27.623Z,5.47
2023-04-29T21:36:55.491Z,5.55
2023-04-29T21:39:23.433Z,5.90
2023-04-29T21:41:51.471Z,5.70
2023-04-29T21:44:19.375Z,7.07
2023-04-29T21:46:47.407Z,6.55
2023-04-29T21:49:16.994Z,6.63
2023-04-29T21:51:44.979Z,6.22
2023-04-29T21:54:12.793Z,5.88
2023-04-29T21:56:40.720Z,6.82
2023-04-29T21:59:08.794Z,6.28
2023-04-29T22:01:49.098Z,6.40
2023-04-29T22:04:19.018Z,6.53
2023-04-29T22:06:47.065Z,6.30
2023-04-29T22:09:16.166Z,6.40
2023-04-29T22:11:44.838Z,7.00
2023-04-29T22:14:12.790Z,6.40
2023-04-29T22:16:41.260Z,6.60
2023-04-29T22:19:09.292Z,6.35
2023-04-29T22:21:40.767Z,6.60
2023-04-29T22:24:09.237Z,6.40
2023-04-29T22:26:37.114Z,6.63
2023-04-29T22:29:05.173Z,6.68
2023-04-29T22:31:33.068Z,6.25
2023-04-29T22:34:01.037Z,6.70
2023-04-29T22:36:28.990Z,6.70
2023-04-29T22:38:58.250Z,6.57
2023-04-29T22:41:26.136Z,6.72
2023-04-29T22:43:57.311Z,7.40
2023-04-29T22:46:25.812Z,6.85
2023-04-29T22:48:53.829Z,6.80
2023-04-29T22:51:21.747Z,6.60
2023-04-29T22:53:49.576Z,6.90
2023-04-29T22:56:18.827Z,7.60
2023-04-29T22:58:46.756Z,7.05
2023-04-29T23:01:14.654Z,6.88
2023-04-29T23:03:42.545Z,7.30
2023-04-29T23:06:10.551Z,7.20
2023-04-29T23:08:38.499Z,7.35
2023-04-29T23:11:06.494Z,7.38
2023-04-29T23:13:35.781Z,7.10
2023-04-29T23:16:03.754Z,6.90
2023-04-29T23:18:31.926Z,7.32
2023-04-29T23:20:59.868Z,7.28
2023-04-29T23:23:27.826Z,6.95
2023-04-29T23:25:55.721Z,7.17
2023-04-29T23:28:24.624Z,7.40
2023-04-29T23:30:54.420Z,7.47
2023-04-29T23:33:22.395Z,7.00
2023-04-29T23:35:51.017Z,7.00
2023-04-29T23:38:19.189Z,7.07
2023-04-29T23:40:47.342Z,7.77
2023-04-29T23:43:15.726Z,7.40
2023-04-29T23:45:45.254Z,7.07
2023-04-29T23:48:15.623Z,6.72
2023-04-29T23:50:43.565Z,7.60
2023-04-29T23:53:11.528Z,6.23
2023-04-29T23:55:39.426Z,7.70
2023-04-29T23:58:07.650Z,7.88
